CheckWX is a tool to help pilots better visualize weather data.  It is not intended as a substitute for an official pre-flight weather briefing.

02:12:37 UTC

KHHR METAR
Jack Northrop Field / Hawthorne Municipal Airport
Hawthorne, California, USA
Current

20 mins ago

KHHR 180153Z 27018G28KT 10SM FEW034 12/04 A2994 RMK AO2 PK WND 27031/0055 SLP139 T01220044
Observed
Feb-18 @ 01:53 UTC
Wind
  • 270° at 18 KTS
  • Gusting to 28 KTS
Visibility
10 SM
Flight Rules
VFR
Cloud Levels
  • Few at 3,400' AGL
Temperature
12°C / 54°F
Dewpoint
C / 39°F
Humidity
58%
Altimeter
29.94" Hg
Pressure
1013.9 hPa
Previous

1 hour ago

KHHR 180053Z 28019G28KT 10SM CLR 13/04 A2994 RMK AO2 PK WND 27030/0013 SLP138 T01280039
Observed
Feb-18 @ 00:53 UTC
Wind
  • 280° at 19 KTS
  • Gusting to 28 KTS
Visibility
10 SM
Flight Rules
VFR
Cloud Levels
  • Clear skies
Temperature
13°C / 55°F
Dewpoint
C / 39°F
Humidity
55%
Altimeter
29.94" Hg
Pressure
1013.8 hPa
Previous

2 hours ago

KHHR 172353Z 26021G31KT 10SM FEW036 13/04 A2995 RMK AO2 PK WND 27031/2351 SLP140 P0001 60002 T01330039 10139 20111 58020
Observed
Feb-17 @ 23:53 UTC
Wind
  • 260° at 21 KTS
  • Gusting to 31 KTS
Visibility
10 SM
Flight Rules
VFR
Cloud Levels
  • Few at 3,600' AGL
Temperature
13°C / 55°F
Dewpoint
C / 39°F
Humidity
55%
Altimeter
29.95" Hg
Pressure
1014 hPa
Current Rain
0.01"